sensor_id;sensor_type;location;lat;lon;timestamp;pressure;altitude;pressure_sealevel;temperature;humidity
71638;BME280;59485;43.542;-5.676;2023-01-29T07:57:14;103012.09;;;5.07;100.00
71638;BME280;59485;43.542;-5.676;2023-01-29T07:59:39;103007.63;;;5.06;100.00
71638;BME280;59485;43.542;-5.676;2023-01-29T08:02:04;102999.56;;;5.04;100.00
71638;BME280;59485;43.542;-5.676;2023-01-29T08:04:30;103008.59;;;5.05;100.00
71638;BME280;59485;43.542;-5.676;2023-01-29T08:06:55;103014.22;;;5.02;100.00
71638;BME280;59485;43.542;-5.676;2023-01-29T08:09:20;103013.16;;;5.04;100.00
71638;BME280;59485;43.542;-5.676;2023-01-29T08:11:46;103013.25;;;5.03;100.00
71638;BME280;59485;43.542;-5.676;2023-01-29T08:14:11;103018.69;;;5.03;100.00
71638;BME280;59485;43.542;-5.676;2023-01-29T08:16:37;103016.66;;;5.06;100.00
71638;BME280;59485;43.542;-5.676;2023-01-29T08:19:02;103030.34;;;5.05;100.00
71638;BME280;59485;43.542;-5.676;2023-01-29T08:21:28;103023.75;;;5.09;100.00
71638;BME280;59485;43.542;-5.676;2023-01-29T08:23:53;103031.56;;;5.13;100.00
71638;BME280;59485;43.542;-5.676;2023-01-29T08:26:18;103025.06;;;5.16;100.00
71638;BME280;59485;43.542;-5.676;2023-01-29T08:28:44;103014.84;;;5.19;100.00
71638;BME280;59485;43.542;-5.676;2023-01-29T08:31:13;103032.72;;;5.23;100.00
71638;BME280;59485;43.542;-5.676;2023-01-29T08:33:38;103027.97;;;5.27;100.00
71638;BME280;59485;43.542;-5.676;2023-01-29T08:36:04;103021.66;;;5.26;100.00
71638;BME280;59485;43.542;-5.676;2023-01-29T08:38:29;103039.59;;;5.29;100.00
71638;BME280;59485;43.542;-5.676;2023-01-29T08:40:54;103046.41;;;5.36;100.00
71638;BME280;59485;43.542;-5.676;2023-01-29T08:43:20;103049.00;;;5.38;100.00
71638;BME280;59485;43.542;-5.676;2023-01-29T08:45:45;103051.44;;;5.42;100.00
71638;BME280;59485;43.542;-5.676;2023-01-29T08:48:11;103056.69;;;5.45;100.00
71638;BME280;59485;43.542;-5.676;2023-01-29T08:50:36;103066.78;;;5.43;100.00
71638;BME280;59485;43.542;-5.676;2023-01-29T08:53:02;103058.22;;;5.49;100.00
71638;BME280;59485;43.542;-5.676;2023-01-29T08:55:28;103067.06;;;5.53;100.00
71638;BME280;59485;43.542;-5.676;2023-01-29T08:57:54;103057.03;;;5.53;100.00
71638;BME280;59485;43.542;-5.676;2023-01-29T09:00:21;103064.84;;;5.45;100.00
71638;BME280;59485;43.542;-5.676;2023-01-29T09:02:47;103075.59;;;5.47;100.00
71638;BME280;59485;43.542;-5.676;2023-01-29T09:05:12;103079.28;;;5.46;100.00
71638;BME280;59485;43.542;-5.676;2023-01-29T09:07:37;103080.94;;;5.48;100.00
71638;BME280;59485;43.542;-5.676;2023-01-29T09:10:03;103082.09;;;5.58;100.00
71638;BME280;59485;43.542;-5.676;2023-01-29T09:12:28;103081.88;;;5.61;100.00
71638;BME280;59485;43.542;-5.676;2023-01-29T09:14:53;103089.72;;;5.66;100.00
71638;BME280;59485;43.542;-5.676;2023-01-29T09:17:19;103091.38;;;5.69;100.00
71638;BME280;59485;43.542;-5.676;2023-01-29T09:19:44;103089.91;;;5.77;100.00
71638;BME280;59485;43.542;-5.676;2023-01-29T09:22:09;103083.06;;;5.84;100.00
71638;BME280;59485;43.542;-5.676;2023-01-29T09:24:35;103084.56;;;5.90;100.00
71638;BME280;59485;43.542;-5.676;2023-01-29T09:27:00;103085.09;;;5.95;100.00
71638;BME280;59485;43.542;-5.676;2023-01-29T09:29:26;103084.22;;;5.94;100.00
71638;BME280;59485;43.542;-5.676;2023-01-29T09:31:51;103088.38;;;6.00;100.00
71638;BME280;59485;43.542;-5.676;2023-01-29T09:34:16;103087.28;;;6.02;100.00
71638;BME280;59485;43.542;-5.676;2023-01-29T09:36:42;103090.47;;;6.09;100.00
71638;BME280;59485;43.542;-5.676;2023-01-29T09:39:07;103091.03;;;6.14;100.00
71638;BME280;59485;43.542;-5.676;2023-01-29T09:46:51;103085.16;;;6.20;100.00
71638;BME280;59485;43.542;-5.676;2023-01-29T09:49:34;103087.34;;;6.28;100.00
71638;BME280;59485;43.542;-5.676;2023-01-29T09:52:04;103081.38;;;6.35;100.00
71638;BME280;59485;43.542;-5.676;2023-01-29T09:54:32;103081.75;;;6.44;100.00
71638;BME280;59485;43.542;-5.676;2023-01-29T09:56:59;103088.72;;;6.48;100.00
71638;BME280;59485;43.542;-5.676;2023-01-29T09:59:26;103093.94;;;6.51;100.00
71638;BME280;59485;43.542;-5.676;2023-01-29T10:01:54;103090.13;;;6.53;100.00
71638;BME280;59485;43.542;-5.676;2023-01-29T10:09:52;103089.59;;;6.73;100.00
71638;BME280;59485;43.542;-5.676;2023-01-29T10:24:51;103088.19;;;7.06;100.00
71638;BME280;59485;43.542;-5.676;2023-01-29T10:27:18;103085.53;;;7.17;100.00
71638;BME280;59485;43.542;-5.676;2023-01-29T10:29:44;103081.50;;;7.23;100.00
71638;BME280;59485;43.542;-5.676;2023-01-29T10:32:13;103083.47;;;7.21;100.00
71638;BME280;59485;43.542;-5.676;2023-01-29T10:34:50;103081.69;;;7.32;100.00
71638;BME280;59485;43.542;-5.676;2023-01-29T10:37:18;103086.03;;;7.35;100.00
71638;BME280;59485;43.542;-5.676;2023-01-29T10:39:47;103087.09;;;7.45;100.00
71638;BME280;59485;43.542;-5.676;2023-01-29T11:00:28;103083.53;;;8.16;100.00
71638;BME280;59485;43.542;-5.676;2023-01-29T11:02:55;103069.91;;;8.27;100.00
71638;BME280;59485;43.542;-5.676;2023-01-29T11:05:25;103076.78;;;8.33;100.00
71638;BME280;59485;43.542;-5.676;2023-01-29T11:07:56;103078.19;;;8.38;100.00
71638;BME280;59485;43.542;-5.676;2023-01-29T11:10:25;103063.69;;;8.49;100.00
71638;BME280;59485;43.542;-5.676;2023-01-29T11:12:51;103054.63;;;8.59;100.00
71638;BME280;59485;43.542;-5.676;2023-01-29T11:15:18;103048.69;;;8.65;100.00
71638;BME280;59485;43.542;-5.676;2023-01-29T11:18:04;103049.28;;;8.69;100.00
71638;BME280;59485;43.542;-5.676;2023-01-29T11:20:30;103042.22;;;8.78;100.00
71638;BME280;59485;43.542;-5.676;2023-01-29T11:22:56;103032.31;;;8.77;100.00
71638;BME280;59485;43.542;-5.676;2023-01-29T11:25:22;103036.75;;;8.78;100.00
71638;BME280;59485;43.542;-5.676;2023-01-29T11:27:54;103041.75;;;8.84;100.00
71638;BME280;59485;43.542;-5.676;2023-01-29T11:30:38;103036.75;;;8.89;100.00
71638;BME280;59485;43.542;-5.676;2023-01-29T11:33:17;103028.56;;;8.89;100.00
71638;BME280;59485;43.542;-5.676;2023-01-29T11:35:43;103028.56;;;8.89;100.00
71638;BME280;59485;43.542;-5.676;2023-01-29T11:40:40;103026.47;;;9.03;100.00
71638;BME280;59485;43.542;-5.676;2023-01-29T11:43:48;103019.13;;;8.93;100.00
71638;BME280;59485;43.542;-5.676;2023-01-29T11:45:58;103016.38;;;8.93;100.00
71638;BME280;59485;43.542;-5.676;2023-01-29T11:48:31;103012.38;;;8.97;100.00
71638;BME280;59485;43.542;-5.676;2023-01-29T11:51:00;103013.91;;;9.01;100.00
71638;BME280;59485;43.542;-5.676;2023-01-29T11:53:36;103007.16;;;9.05;100.00
71638;BME280;59485;43.542;-5.676;2023-01-29T11:56:03;103006.81;;;9.10;100.00
71638;BME280;59485;43.542;-5.676;2023-01-29T11:58:30;103007.28;;;9.15;100.00
71638;BME280;59485;43.542;-5.676;2023-01-29T12:00:56;103004.41;;;9.16;100.00
71638;BME280;59485;43.542;-5.676;2023-01-29T12:06:24;102990.84;;;9.26;100.00
71638;BME280;59485;43.542;-5.676;2023-01-29T12:08:53;102991.31;;;9.31;100.00
71638;BME280;59485;43.542;-5.676;2023-01-29T12:11:29;102991.84;;;9.25;100.00
71638;BME280;59485;43.542;-5.676;2023-01-29T12:14:04;102991.25;;;9.21;100.00
71638;BME280;59485;43.542;-5.676;2023-01-29T12:16:44;102983.50;;;9.26;100.00
71638;BME280;59485;43.542;-5.676;2023-01-29T12:21:45;102970.56;;;9.28;100.00
71638;BME280;59485;43.542;-5.676;2023-01-29T12:27:04;102968.19;;;9.35;100.00
71638;BME280;59485;43.542;-5.676;2023-01-29T12:32:25;102964.53;;;9.57;100.00
71638;BME280;59485;43.542;-5.676;2023-01-29T12:37:39;102960.31;;;9.41;100.00
71638;BME280;59485;43.542;-5.676;2023-01-29T12:40:12;102955.47;;;9.45;100.00
71638;BME280;59485;43.542;-5.676;2023-01-29T12:42:41;102950.38;;;9.40;100.00
71638;BME280;59485;43.542;-5.676;2023-01-29T12:45:08;102949.38;;;9.41;100.00
71638;BME280;59485;43.542;-5.676;2023-01-29T12:47:36;102943.97;;;9.30;100.00
71638;BME280;59485;43.542;-5.676;2023-01-29T12:50:04;102934.47;;;9.34;100.00
71638;BME280;59485;43.542;-5.676;2023-01-29T12:53:04;102932.25;;;9.28;100.00
71638;BME280;59485;43.542;-5.676;2023-01-29T12:55:29;102932.34;;;9.38;100.00
71638;BME280;59485;43.542;-5.676;2023-01-29T12:58:04;102923.50;;;9.46;100.00
71638;BME280;59485;43.542;-5.676;2023-01-29T13:00:35;102916.28;;;9.45;100.00
71638;BME280;59485;43.542;-5.676;2023-01-29T13:08:25;102909.22;;;9.63;100.00
71638;BME280;59485;43.542;-5.676;2023-01-29T13:10:53;102907.59;;;9.60;100.00
71638;BME280;59485;43.542;-5.676;2023-01-29T13:16:18;102896.94;;;9.57;100.00
71638;BME280;59485;43.542;-5.676;2023-01-29T13:19:05;102893.91;;;9.60;100.00
71638;BME280;59485;43.542;-5.676;2023-01-29T13:21:38;102896.06;;;9.57;100.00
71638;BME280;59485;43.542;-5.676;2023-01-29T13:24:06;102890.44;;;9.58;100.00
71638;BME280;59485;43.542;-5.676;2023-01-29T13:26:35;102894.88;;;9.70;100.00
71638;BME280;59485;43.542;-5.676;2023-01-29T13:29:00;102885.31;;;9.65;100.00
71638;BME280;59485;43.542;-5.676;2023-01-29T13:31:36;102893.06;;;9.60;100.00
71638;BME280;59485;43.542;-5.676;2023-01-29T13:36:40;102880.56;;;9.67;100.00
71638;BME280;59485;43.542;-5.676;2023-01-29T13:39:08;102871.53;;;9.76;100.00
71638;BME280;59485;43.542;-5.676;2023-01-29T13:41:41;102877.97;;;9.86;100.00
71638;BME280;59485;43.542;-5.676;2023-01-29T13:44:31;102875.09;;;9.88;100.00
71638;BME280;59485;43.542;-5.676;2023-01-29T13:46:59;102876.63;;;10.01;100.00
71638;BME280;59485;43.542;-5.676;2023-01-29T13:49:30;102859.22;;;10.12;100.00
71638;BME280;59485;43.542;-5.676;2023-01-29T13:51:57;102856.84;;;9.98;100.00
71638;BME280;59485;43.542;-5.676;2023-01-29T13:54:26;102851.25;;;9.99;100.00
71638;BME280;59485;43.542;-5.676;2023-01-29T13:59:21;102851.63;;;9.95;100.00
71638;BME280;59485;43.542;-5.676;2023-01-29T14:06:56;102836.75;;;9.88;100.00
71638;BME280;59485;43.542;-5.676;2023-01-29T14:11:56;102852.38;;;9.76;100.00
71638;BME280;59485;43.542;-5.676;2023-01-29T14:18:01;102852.47;;;9.65;100.00
71638;BME280;59485;43.542;-5.676;2023-01-29T14:20:29;102845.19;;;9.75;100.00
71638;BME280;59485;43.542;-5.676;2023-01-29T14:22:56;102849.56;;;9.66;100.00
71638;BME280;59485;43.542;-5.676;2023-01-29T14:25:30;102837.78;;;9.66;100.00
71638;BME280;59485;43.542;-5.676;2023-01-29T14:27:57;102846.03;;;9.75;100.00
71638;BME280;59485;43.542;-5.676;2023-01-29T14:30:22;102850.13;;;9.81;100.00
71638;BME280;59485;43.542;-5.676;2023-01-29T14:32:50;102855.03;;;9.87;100.00
71638;BME280;59485;43.542;-5.676;2023-01-29T14:35:22;102839.97;;;9.93;100.00
71638;BME280;59485;43.542;-5.676;2023-01-29T14:37:49;102851.63;;;9.95;100.00
71638;BME280;59485;43.542;-5.676;2023-01-29T14:45:43;102843.03;;;9.99;100.00
71638;BME280;59485;43.542;-5.676;2023-01-29T14:58:02;102850.75;;;10.15;100.00
71638;BME280;59485;43.542;-5.676;2023-01-29T15:00:35;102854.03;;;10.09;100.00
71638;BME280;59485;43.542;-5.676;2023-01-29T15:03:01;102843.47;;;10.04;100.00
71638;BME280;59485;43.542;-5.676;2023-01-29T15:05:34;102845.19;;;10.05;100.00
71638;BME280;59485;43.542;-5.676;2023-01-29T15:10:43;102850.38;;;10.20;100.00
71638;BME280;59485;43.542;-5.676;2023-01-29T15:16:00;102854.16;;;10.07;100.00
71638;BME280;59485;43.542;-5.676;2023-01-29T15:18:39;102853.44;;;10.05;100.00
71638;BME280;59485;43.542;-5.676;2023-01-29T15:21:13;102856.56;;;10.22;100.00
71638;BME280;59485;43.542;-5.676;2023-01-29T15:23:39;102854.47;;;10.14;100.00
71638;BME280;59485;43.542;-5.676;2023-01-29T15:26:07;102849.88;;;10.14;100.00
71638;BME280;59485;43.542;-5.676;2023-01-29T15:28:35;102848.38;;;10.01;100.00
71638;BME280;59485;43.542;-5.676;2023-01-29T15:31:02;102854.84;;;9.79;100.00
71638;BME280;59485;43.542;-5.676;2023-01-29T15:33:28;102853.47;;;9.64;100.00
71638;BME280;59485;43.542;-5.676;2023-01-29T15:35:58;102857.47;;;9.60;100.00
71638;BME280;59485;43.542;-5.676;2023-01-29T15:38:24;102855.13;;;9.76;100.00
71638;BME280;59485;43.542;-5.676;2023-01-29T15:43:46;102850.63;;;9.96;100.00
71638;BME280;59485;43.542;-5.676;2023-01-29T15:48:43;102851.16;;;10.10;100.00
71638;BME280;59485;43.542;-5.676;2023-01-29T15:51:11;102849.69;;;10.27;100.00
71638;BME280;59485;43.542;-5.676;2023-01-29T15:53:43;102853.50;;;10.45;100.00
71638;BME280;59485;43.542;-5.676;2023-01-29T15:56:10;102848.13;;;10.34;100.00
71638;BME280;59485;43.542;-5.676;2023-01-29T15:58:36;102856.75;;;10.30;100.00
71638;BME280;59485;43.542;-5.676;2023-01-29T16:01:02;102855.16;;;10.27;100.00
71638;BME280;59485;43.542;-5.676;2023-01-29T16:03:29;102860.66;;;10.27;100.00
71638;BME280;59485;43.542;-5.676;2023-01-29T16:05:55;102857.34;;;10.33;100.00
71638;BME280;59485;43.542;-5.676;2023-01-29T16:08:21;102858.22;;;10.34;100.00
71638;BME280;59485;43.542;-5.676;2023-01-29T16:10:48;102861.31;;;10.50;100.00
71638;BME280;59485;43.542;-5.676;2023-01-29T16:13:20;102859.69;;;10.38;100.00
71638;BME280;59485;43.542;-5.676;2023-01-29T16:15:58;102860.16;;;10.22;100.00
71638;BME280;59485;43.542;-5.676;2023-01-29T16:18:46;102858.81;;;10.16;100.00
71638;BME280;59485;43.542;-5.676;2023-01-29T16:21:15;102859.97;;;10.14;100.00
71638;BME280;59485;43.542;-5.676;2023-01-29T16:23:42;102860.81;;;10.14;100.00
71638;BME280;59485;43.542;-5.676;2023-01-29T16:26:11;102862.78;;;10.03;100.00
71638;BME280;59485;43.542;-5.676;2023-01-29T16:28:40;102857.72;;;9.98;100.00
71638;BME280;59485;43.542;-5.676;2023-01-29T16:31:05;102861.28;;;9.89;100.00
71638;BME280;59485;43.542;-5.676;2023-01-29T16:33:35;102865.00;;;9.88;100.00
71638;BME280;59485;43.542;-5.676;2023-01-29T16:36:10;102862.66;;;10.04;100.00
71638;BME280;59485;43.542;-5.676;2023-01-29T16:38:39;102865.25;;;10.27;100.00
71638;BME280;59485;43.542;-5.676;2023-01-29T16:41:15;102867.41;;;10.23;100.00
71638;BME280;59485;43.542;-5.676;2023-01-29T16:46:16;102870.66;;;10.38;100.00
71638;BME280;59485;43.542;-5.676;2023-01-29T16:48:42;102875.50;;;10.25;100.00
71638;BME280;59485;43.542;-5.676;2023-01-29T16:51:27;102879.09;;;10.25;100.00
71638;BME280;59485;43.542;-5.676;2023-01-29T16:53:54;102882.44;;;10.29;100.00
71638;BME280;59485;43.542;-5.676;2023-01-29T16:56:20;102886.56;;;10.02;100.00
71638;BME280;59485;43.542;-5.676;2023-01-29T16:58:48;102894.34;;;9.97;100.00
71638;BME280;59485;43.542;-5.676;2023-01-29T17:01:13;102893.72;;;10.14;100.00
71638;BME280;59485;43.542;-5.676;2023-01-29T17:03:39;102897.31;;;10.15;100.00
71638;BME280;59485;43.542;-5.676;2023-01-29T17:06:08;102899.63;;;9.89;100.00
71638;BME280;59485;43.542;-5.676;2023-01-29T17:08:35;102904.22;;;9.89;100.00
71638;BME280;59485;43.542;-5.676;2023-01-29T17:11:00;102900.06;;;9.94;100.00
71638;BME280;59485;43.542;-5.676;2023-01-29T17:13:27;102910.63;;;9.78;100.00
71638;BME280;59485;43.542;-5.676;2023-01-29T17:15:58;102905.81;;;9.70;100.00
71638;BME280;59485;43.542;-5.676;2023-01-29T17:18:24;102913.50;;;9.56;100.00
71638;BME280;59485;43.542;-5.676;2023-01-29T17:20:50;102911.13;;;9.51;100.00
71638;BME280;59485;43.542;-5.676;2023-01-29T17:23:17;102918.50;;;9.39;100.00
71638;BME280;59485;43.542;-5.676;2023-01-29T17:25:42;102911.50;;;9.26;100.00
71638;BME280;59485;43.542;-5.676;2023-01-29T17:28:10;102917.84;;;9.15;100.00
71638;BME280;59485;43.542;-5.676;2023-01-29T17:30:37;102918.59;;;9.17;100.00
71638;BME280;59485;43.542;-5.676;2023-01-29T17:33:16;102916.63;;;9.08;100.00
71638;BME280;59485;43.542;-5.676;2023-01-29T17:35:42;102921.47;;;9.04;100.00
71638;BME280;59485;43.542;-5.676;2023-01-29T17:38:11;102924.22;;;9.04;100.00
71638;BME280;59485;43.542;-5.676;2023-01-29T17:40:38;102927.81;;;9.05;100.00
71638;BME280;59485;43.542;-5.676;2023-01-29T17:43:05;102926.59;;;8.98;100.00
71638;BME280;59485;43.542;-5.676;2023-01-29T17:45:31;102937.78;;;8.95;100.00
71638;BME280;59485;43.542;-5.676;2023-01-29T17:47:57;102936.94;;;8.94;100.00
71638;BME280;59485;43.542;-5.676;2023-01-29T17:50:26;102937.94;;;8.93;100.00
71638;BME280;59485;43.542;-5.676;2023-01-29T17:52:53;102940.56;;;8.84;100.00
71638;BME280;59485;43.542;-5.676;2023-01-29T17:55:18;102945.03;;;8.85;100.00
71638;BME280;59485;43.542;-5.676;2023-01-29T17:57:44;102948.38;;;8.77;100.00
71638;BME280;59485;43.542;-5.676;2023-01-29T18:00:20;102952.72;;;8.80;100.00
71638;BME280;59485;43.542;-5.676;2023-01-29T18:02:46;102957.09;;;8.71;100.00
71638;BME280;59485;43.542;-5.676;2023-01-29T18:05:11;102954.13;;;8.74;100.00
71638;BME280;59485;43.542;-5.676;2023-01-29T18:07:37;102956.97;;;8.73;100.00
71638;BME280;59485;43.542;-5.676;2023-01-29T18:10:04;102958.84;;;8.72;100.00
71638;BME280;59485;43.542;-5.676;2023-01-29T18:12:29;102956.22;;;8.71;100.00
71638;BME280;59485;43.542;-5.676;2023-01-29T18:14:54;102961.94;;;8.68;100.00
71638;BME280;59485;43.542;-5.676;2023-01-29T18:17:20;102962.78;;;8.68;100.00
71638;BME280;59485;43.542;-5.676;2023-01-29T18:19:47;102960.34;;;8.65;100.00
71638;BME280;59485;43.542;-5.676;2023-01-29T18:22:12;102964.06;;;8.64;100.00
71638;BME280;59485;43.542;-5.676;2023-01-29T18:24:38;102965.41;;;8.70;100.00
71638;BME280;59485;43.542;-5.676;2023-01-29T18:27:03;102970.88;;;8.70;100.00
71638;BME280;59485;43.542;-5.676;2023-01-29T18:29:29;102976.63;;;8.67;100.00
71638;BME280;59485;43.542;-5.676;2023-01-29T18:31:54;102973.13;;;8.64;100.00
71638;BME280;59485;43.542;-5.676;2023-01-29T18:34:20;102971.50;;;8.62;100.00
71638;BME280;59485;43.542;-5.676;2023-01-29T18:36:45;102966.91;;;8.62;100.00
71638;BME280;59485;43.542;-5.676;2023-01-29T18:39:12;102975.22;;;8.61;100.00
71638;BME280;59485;43.542;-5.676;2023-01-29T18:41:40;102969.16;;;8.57;100.00
71638;BME280;59485;43.542;-5.676;2023-01-29T18:44:05;102973.75;;;8.57;100.00
71638;BME280;59485;43.542;-5.676;2023-01-29T18:46:31;102974.13;;;8.63;100.00
71638;BME280;59485;43.542;-5.676;2023-01-29T18:48:57;102982.31;;;8.52;100.00
71638;BME280;59485;43.542;-5.676;2023-01-29T18:51:22;102979.44;;;8.43;100.00
71638;BME280;59485;43.542;-5.676;2023-01-29T18:53:51;102972.84;;;8.45;100.00
71638;BME280;59485;43.542;-5.676;2023-01-29T18:56:16;102977.09;;;8.38;100.00
71638;BME280;59485;43.542;-5.676;2023-01-29T18:58:42;102981.56;;;8.39;100.00
71638;BME280;59485;43.542;-5.676;2023-01-29T19:01:10;102978.56;;;8.31;100.00
71638;BME280;59485;43.542;-5.676;2023-01-29T19:03:38;102984.03;;;8.31;100.00
71638;BME280;59485;43.542;-5.676;2023-01-29T19:06:05;102986.84;;;8.29;100.00
71638;BME280;59485;43.542;-5.676;2023-01-29T19:08:31;102987.47;;;8.22;100.00
71638;BME280;59485;43.542;-5.676;2023-01-29T19:10:56;102993.91;;;8.21;100.00
71638;BME280;59485;43.542;-5.676;2023-01-29T19:13:26;102993.25;;;8.17;100.00
71638;BME280;59485;43.542;-5.676;2023-01-29T19:15:51;103000.31;;;8.09;100.00
71638;BME280;59485;43.542;-5.676;2023-01-29T19:18:17;103003.44;;;8.04;100.00
71638;BME280;59485;43.542;-5.676;2023-01-29T19:20:42;102993.13;;;8.08;100.00
71638;BME280;59485;43.542;-5.676;2023-01-29T19:23:08;103004.41;;;8.03;100.00
71638;BME280;59485;43.542;-5.676;2023-01-29T19:25:37;103002.66;;;8.02;100.00
71638;BME280;59485;43.542;-5.676;2023-01-29T19:28:03;103003.00;;;7.98;100.00
71638;BME280;59485;43.542;-5.676;2023-01-29T19:30:29;103011.56;;;7.93;100.00
71638;BME280;59485;43.542;-5.676;2023-01-29T19:32:54;103014.91;;;7.97;100.00
71638;BME280;59485;43.542;-5.676;2023-01-29T19:35:20;103012.66;;;7.90;100.00
71638;BME280;59485;43.542;-5.676;2023-01-29T19:37:45;103011.09;;;7.99;100.00
71638;BME280;59485;43.542;-5.676;2023-01-29T19:40:10;103010.22;;;7.99;100.00
71638;BME280;59485;43.542;-5.676;2023-01-29T19:42:36;103010.84;;;8.02;100.00
71638;BME280;59485;43.542;-5.676;2023-01-29T19:45:02;103018.06;;;8.03;100.00
71638;BME280;59485;43.542;-5.676;2023-01-29T19:47:27;103014.47;;;8.03;100.00
71638;BME280;59485;43.542;-5.676;2023-01-29T19:49:52;103011.72;;;8.03;100.00
71638;BME280;59485;43.542;-5.676;2023-01-29T19:52:18;103007.53;;;8.10;100.00
71638;BME280;59485;43.542;-5.676;2023-01-29T19:55:02;103014.97;;;8.08;100.00
71638;BME280;59485;43.542;-5.676;2023-01-29T19:57:28;103011.47;;;8.06;100.00
71638;BME280;59485;43.542;-5.676;2023-01-29T19:59:58;103017.09;;;8.04;100.00
71638;BME280;59485;43.542;-5.676;2023-01-29T20:02:26;103020.16;;;8.00;100.00
71638;BME280;59485;43.542;-5.676;2023-01-29T20:04:55;103013.47;;;8.04;100.00
71638;BME280;59485;43.542;-5.676;2023-01-29T20:07:20;103002.78;;;8.01;100.00
71638;BME280;59485;43.542;-5.676;2023-01-29T20:09:46;103004.88;;;7.97;100.00
71638;BME280;59485;43.542;-5.676;2023-01-29T20:12:12;103009.34;;;7.98;100.00
71638;BME280;59485;43.542;-5.676;2023-01-29T20:14:38;103003.16;;;7.96;100.00
71638;BME280;59485;43.542;-5.676;2023-01-29T20:17:04;103006.00;;;7.95;100.00
71638;BME280;59485;43.542;-5.676;2023-01-29T20:19:29;103005.25;;;7.93;100.00
71638;BME280;59485;43.542;-5.676;2023-01-29T20:21:55;103003.28;;;7.95;100.00
71638;BME280;59485;43.542;-5.676;2023-01-29T20:24:20;103007.22;;;7.90;100.00
71638;BME280;59485;43.542;-5.676;2023-01-29T20:26:47;103009.19;;;7.88;100.00
71638;BME280;59485;43.542;-5.676;2023-01-29T20:29:13;103003.97;;;7.85;100.00
71638;BME280;59485;43.542;-5.676;2023-01-29T20:31:39;103005.56;;;7.77;100.00
71638;BME280;59485;43.542;-5.676;2023-01-29T20:34:04;103007.16;;;7.79;100.00
71638;BME280;59485;43.542;-5.676;2023-01-29T20:36:30;103000.72;;;7.80;100.00
71638;BME280;59485;43.542;-5.676;2023-01-29T20:38:58;103002.94;;;7.75;100.00
71638;BME280;59485;43.542;-5.676;2023-01-29T20:41:24;103009.16;;;7.77;100.00
71638;BME280;59485;43.542;-5.676;2023-01-29T20:43:49;103012.34;;;7.71;100.00
71638;BME280;59485;43.542;-5.676;2023-01-29T20:46:15;103006.75;;;7.73;100.00
71638;BME280;59485;43.542;-5.676;2023-01-29T20:48:41;103006.16;;;7.80;100.00
71638;BME280;59485;43.542;-5.676;2023-01-29T20:51:07;103002.34;;;7.83;100.00
71638;BME280;59485;43.542;-5.676;2023-01-29T20:53:34;103010.66;;;7.81;100.00
71638;BME280;59485;43.542;-5.676;2023-01-29T20:56:00;103013.25;;;7.83;100.00
71638;BME280;59485;43.542;-5.676;2023-01-29T21:01:10;103013.38;;;7.81;100.00
71638;BME280;59485;43.542;-5.676;2023-01-29T21:15:13;103030.94;;;7.66;100.00
71638;BME280;59485;43.542;-5.676;2023-01-29T21:17:48;103029.66;;;7.59;100.00
71638;BME280;59485;43.542;-5.676;2023-01-29T21:28:46;103024.72;;;7.40;100.00
71638;BME280;59485;43.542;-5.676;2023-01-29T21:31:12;103028.31;;;7.41;100.00
71638;BME280;59485;43.542;-5.676;2023-01-29T21:33:48;103026.78;;;7.37;100.00
71638;BME280;59485;43.542;-5.676;2023-01-29T21:36:14;103016.63;;;7.39;100.00
71638;BME280;59485;43.542;-5.676;2023-01-29T21:38:39;103016.84;;;7.36;100.00
71638;BME280;59485;43.542;-5.676;2023-01-29T21:41:11;103011.00;;;7.29;100.00
71638;BME280;59485;43.542;-5.676;2023-01-29T21:43:39;103010.13;;;7.29;100.00
71638;BME280;59485;43.542;-5.676;2023-01-29T21:46:13;103011.88;;;7.30;100.00
71638;BME280;59485;43.542;-5.676;2023-01-29T21:48:50;103017.53;;;7.27;100.00
71638;BME280;59485;43.542;-5.676;2023-01-29T22:03:01;103009.97;;;7.06;100.00
71638;BME280;59485;43.542;-5.676;2023-01-29T22:05:30;103004.53;;;7.06;100.00
71638;BME280;59485;43.542;-5.676;2023-01-29T22:08:01;103001.03;;;7.04;100.00
